Time;durP1;ratioP1;P1;durP2;ratioP2;P2;SDS_P1;SDS_P2;PMS_P1;PMS_P2;Temp;Humidity;BMP_temperature;BMP_pressure;BME280_temperature;BME280_humidity;BME280_pressure;Samples;Min_cycle;Max_cycle;Signal;HPM_P1;HPM_P2
2022/09/05 00:00:21;;;;;;;1.33;0.80;;;18.40;99.90;;;;;;5013235;28;20416;-86
2022/09/05 00:02:46;;;;;;;1.83;1.37;;;18.30;99.90;;;;;;5013441;28;20408;-86
2022/09/05 00:05:43;;;;;;;2.00;1.07;;;18.20;99.90;;;;;;5013125;28;20701;-86
2022/09/05 00:08:49;;;;;;;3.83;0.83;;;18.20;99.90;;;;;;5010909;28;20749;-86
2022/09/05 00:11:34;;;;;;;1.57;0.63;;;18.10;99.90;;;;;;5014843;28;20504;-86
2022/09/05 00:14:10;;;;;;;1.27;0.83;;;18.00;99.90;;;;;;4998809;28;20435;-87
2022/09/05 00:16:52;;;;;;;2.40;1.17;;;18.00;99.90;;;;;;4999183;28;20511;-86
2022/09/05 00:19:33;;;;;;;1.37;0.60;;;18.00;99.90;;;;;;4998839;28;20971;-86
2022/09/05 00:22:25;;;;;;;1.67;0.80;;;18.00;99.90;;;;;;5016239;28;20478;-86
2022/09/05 00:25:19;;;;;;;2.00;0.93;;;17.90;99.90;;;;;;5016283;28;20415;-86
2022/09/05 00:28:00;;;;;;;1.83;0.70;;;17.90;99.90;;;;;;4993340;28;20426;-87
2022/09/05 00:30:40;;;;;;;2.07;0.50;;;17.80;99.90;;;;;;5016297;28;20421;-86
2022/09/05 00:33:15;;;;;;;2.33;0.93;;;17.80;99.90;;;;;;4998889;28;21068;-86
2022/09/05 00:36:05;;;;;;;1.97;0.90;;;17.70;99.90;;;;;;5015231;28;20838;-85
2022/09/05 00:38:31;;;;;;;1.30;0.97;;;17.70;99.90;;;;;;5014608;28;20426;-86
2022/09/05 00:41:04;;;;;;;1.60;0.50;;;17.70;99.90;;;;;;5016059;28;20425;-86
2022/09/05 00:43:37;;;;;;;1.80;0.70;;;17.60;99.90;;;;;;5015906;28;20423;-86
2022/09/05 00:46:21;;;;;;;3.07;0.80;;;17.60;99.90;;;;;;5015956;28;20413;-86
2022/09/05 00:49:15;;;;;;;1.57;0.97;;;17.60;99.90;;;;;;5015546;28;20419;-87
2022/09/05 00:51:52;;;;;;;1.67;1.00;;;17.60;1.00;;;;;;5015480;28;20532;-86
2022/09/05 00:54:39;;;;;;;2.77;1.50;;;17.50;1.00;;;;;;5014166;28;20438;-86
2022/09/05 00:57:26;;;;;;;2.43;0.77;;;17.50;1.00;;;;;;5015451;28;20435;-87
2022/09/05 01:00:13;;;;;;;2.70;0.73;;;17.50;1.00;;;;;;5015460;28;20422;-87
2022/09/05 01:02:52;;;;;;;2.57;1.20;;;17.50;1.00;;;;;;5015245;28;20422;-87
2022/09/05 01:05:45;;;;;;;2.37;0.90;;;17.40;1.00;;;;;;5015167;28;20503;-88
2022/09/05 01:08:24;;;;;;;0.80;0.40;;;17.40;1.00;;;;;;5015574;28;20415;-87
2022/09/05 01:10:56;;;;;;;1.97;0.90;;;17.40;1.00;;;;;;5015382;28;20495;-87
2022/09/05 01:13:42;;;;;;;2.00;0.90;;;17.40;1.00;;;;;;5015043;28;20468;-86
2022/09/05 01:16:28;;;;;;;1.20;0.80;;;17.30;1.00;;;;;;5015752;28;20416;-86
2022/09/05 01:19:11;;;;;;;1.90;1.10;;;17.30;1.00;;;;;;5014884;28;20778;-86
2022/09/05 01:22:08;;;;;;;0.90;0.40;;;17.20;55.00;;;;;;5014065;28;20416;-86
2022/09/05 01:25:07;;;;;;;1.47;0.60;;;17.20;20.70;;;;;;4997674;28;20431;-86
2022/09/05 01:27:50;;;;;;;2.37;0.67;;;17.20;1.00;;;;;;5014881;28;20554;-86
2022/09/05 01:30:26;;;;;;;1.73;0.83;;;17.20;1.00;;;;;;5013924;28;20949;-86
2022/09/05 01:33:10;;;;;;;2.43;1.03;;;17.20;2.50;;;;;;4997803;28;20477;-86
2022/09/05 01:35:53;;;;;;;1.93;0.90;;;17.20;47.60;;;;;;5015049;28;20412;-87
2022/09/05 01:38:37;;;;;;;1.20;0.70;;;17.20;63.70;;;;;;5013567;28;20410;-86
2022/09/05 01:41:20;;;;;;;2.60;1.27;;;17.20;1.00;;;;;;5013622;28;20427;-86
2022/09/05 01:44:22;;;;;;;2.10;0.70;;;17.20;1.00;;;;;;4997553;28;20437;-86
2022/09/05 01:47:02;;;;;;;1.10;0.73;;;17.20;99.90;;;;;;5015335;28;20404;-87
2022/09/05 01:49:54;;;;;;;1.97;0.83;;;17.10;94.70;;;;;;5013377;28;20423;-87
2022/09/05 01:53:03;;;;;;;1.17;0.73;;;17.10;35.70;;;;;;5014927;28;20464;-87
2022/09/05 01:55:52;;;;;;;1.40;0.50;;;17.10;41.40;;;;;;5014874;28;20416;-87
2022/09/05 01:58:43;;;;;;;1.53;0.80;;;17.10;1.00;;;;;;4996383;28;20425;-86
2022/09/05 02:01:23;;;;;;;1.20;0.57;;;17.10;26.70;;;;;;5013401;28;20430;-86
2022/09/05 02:04:25;;;;;;;1.90;1.13;;;17.00;99.30;;;;;;4996589;28;20412;-86
2022/09/05 02:07:26;;;;;;;1.47;0.77;;;17.10;21.50;;;;;;5013900;28;20456;-85
2022/09/05 02:10:19;;;;;;;2.00;1.13;;;17.10;67.70;;;;;;5014006;28;20412;-87
2022/09/05 02:12:47;;;;;;;2.43;1.20;;;17.10;1.00;;;;;;5012377;28;20557;-86
2022/09/05 02:15:18;;;;;;;1.53;1.00;;;17.00;99.90;;;;;;5014008;28;20413;-87
2022/09/05 02:17:59;;;;;;;1.50;1.03;;;17.00;99.90;;;;;;5013913;28;20407;-87
2022/09/05 02:20:28;;;;;;;4.40;1.20;;;17.10;22.80;;;;;;4996364;28;20416;-87
2022/09/05 02:23:13;;;;;;;1.20;0.47;;;17.10;99.90;;;;;;4996318;28;20818;-86
2022/09/05 02:25:57;;;;;;;2.00;1.17;;;17.00;99.90;;;;;;5013920;28;20942;-87
2022/09/05 02:28:43;;;;;;;2.73;1.07;;;17.10;12.30;;;;;;5013474;28;20500;-86
2022/09/05 02:31:19;;;;;;;2.20;0.80;;;17.00;12.10;;;;;;5013721;28;20416;-86
2022/09/05 02:33:58;;;;;;;1.20;0.70;;;17.10;3.60;;;;;;4995325;28;20559;-87
2022/09/05 02:36:49;;;;;;;1.60;0.83;;;17.00;20.60;;;;;;4996060;28;20456;-85
2022/09/05 02:39:37;;;;;;;1.43;0.70;;;17.00;2.70;;;;;;5013708;28;20421;-86
2022/09/05 02:42:17;;;;;;;5.43;0.90;;;17.00;1.00;;;;;;5012032;28;20984;-86
2022/09/05 02:45:21;;;;;;;2.03;1.73;;;17.00;1.00;;;;;;4995939;28;20417;-86
2022/09/05 02:48:02;;;;;;;1.57;0.73;;;17.00;7.40;;;;;;5013414;28;20555;-86
2022/09/05 02:50:53;;;;;;;3.13;1.30;;;17.00;68.50;;;;;;5013621;28;20423;-86
2022/09/05 02:53:21;;;;;;;1.93;1.30;;;16.90;31.50;;;;;;5012185;28;20481;-87
2022/09/05 02:56:08;;;;;;;2.47;0.97;;;16.90;99.90;;;;;;5013340;28;20491;-84
2022/09/05 02:58:46;;;;;;;2.50;0.57;;;16.80;99.90;;;;;;5013131;28;20436;-86
2022/09/05 03:01:24;;;;;;;1.60;0.60;;;16.80;99.90;;;;;;4995808;28;20423;-86
2022/09/05 03:04:20;;;;;;;3.43;1.27;;;16.80;99.90;;;;;;5013479;28;20510;-86
2022/09/05 03:07:14;;;;;;;1.37;1.10;;;16.80;99.90;;;;;;5013018;28;20563;-86
2022/09/05 03:10:04;;;;;;;2.50;1.13;;;16.70;99.90;;;;;;5013086;28;20483;-86
2022/09/05 03:12:53;;;;;;;2.90;1.03;;;16.70;99.90;;;;;;5012829;28;20471;-87
2022/09/05 03:16:06;;;;;;;2.30;0.73;;;16.70;99.90;;;;;;5013129;28;20401;-87
2022/09/05 03:19:17;;;;;;;1.70;0.80;;;16.60;1.00;;;;;;5006933;28;20782;-85
2022/09/05 03:22:07;;;;;;;2.27;0.83;;;16.60;1.00;;;;;;5013188;28;20407;-86
2022/09/05 03:25:03;;;;;;;2.00;1.13;;;16.60;1.00;;;;;;5013044;28;20766;-87
2022/09/05 03:28:25;;;;;;;1.37;0.40;;;16.60;1.00;;;;;;5012826;28;20416;-87
2022/09/05 03:31:44;;;;;;;2.93;1.23;;;16.50;2.10;;;;;;4952577;29;20442;-87
2022/09/05 03:34:27;;;;;;;3.07;1.30;;;16.50;99.90;;;;;;4952795;29;20444;-88
2022/09/05 03:37:05;;;;;;;2.43;1.03;;;16.50;99.90;;;;;;5013053;28;20404;-86
2022/09/05 03:40:05;;;;;;;2.13;1.40;;;16.50;99.90;;;;;;5012924;28;20412;-86
2022/09/05 03:42:54;;;;;;;3.20;1.50;;;16.60;1.00;;;;;;4994937;28;20487;-86
2022/09/05 03:45:47;;;;;;;2.90;1.27;;;16.60;89.30;;;;;;4998382;28;20423;-86
2022/09/05 03:48:49;;;;;;;3.13;1.77;;;16.60;1.00;;;;;;5015284;28;20465;-86
2022/09/05 03:51:44;;;;;;;1.47;0.87;;;16.60;1.00;;;;;;5016517;28;20414;-87
2022/09/05 03:54:56;;;;;;;2.27;0.73;;;16.70;1.00;;;;;;4998884;28;20430;-87
2022/09/05 03:57:34;;;;;;;3.90;1.57;;;16.60;1.00;;;;;;4998492;28;20423;-86
2022/09/05 04:00:13;;;;;;;2.57;1.27;;;16.60;1.00;;;;;;5016478;28;20802;-87
2022/09/05 04:02:58;;;;;;;2.20;1.23;;;16.70;99.90;;;;;;5015134;28;20482;-87
2022/09/05 04:05:29;;;;;;;2.00;1.13;;;16.70;99.90;;;;;;5016144;28;20454;-87
2022/09/05 04:08:32;;;;;;;2.17;1.20;;;16.60;99.90;;;;;;5016524;28;20482;-87
2022/09/05 04:11:12;;;;;;;3.33;1.30;;;16.60;99.90;;;;;;5016288;28;20415;-87
2022/09/05 04:14:00;;;;;;;1.30;0.90;;;16.70;99.90;;;;;;5015892;28;20439;-87
2022/09/05 04:16:40;;;;;;;2.07;1.10;;;16.60;99.90;;;;;;5016158;28;20480;-85
2022/09/05 04:19:28;;;;;;;2.70;2.00;;;16.60;1.00;;;;;;4998677;28;20423;-86
2022/09/05 04:22:21;;;;;;;3.23;1.63;;;16.60;99.90;;;;;;5015932;28;20455;-87
2022/09/05 04:25:11;;;;;;;3.50;1.63;;;16.60;99.90;;;;;;5015903;28;20452;-87
2022/09/05 04:27:54;;;;;;;1.80;1.50;;;16.60;99.90;;;;;;5011263;28;20493;-84
2022/09/05 04:30:20;;;;;;;1.60;1.10;;;16.60;99.90;;;;;;5015885;28;20555;-85
2022/09/05 04:33:06;;;;;;;3.63;1.40;;;16.60;99.90;;;;;;5015768;28;20492;-85
2022/09/05 04:35:57;;;;;;;1.70;1.40;;;16.60;99.90;;;;;;4998188;28;20168;-85
2022/09/05 04:38:35;;;;;;;1.90;1.30;;;16.50;1.00;;;;;;5014348;28;20423;-85
2022/09/05 04:41:12;;;;;;;1.73;1.07;;;16.40;1.00;;;;;;5014311;28;20420;-85
2022/09/05 04:44:10;;;;;;;2.83;1.53;;;16.40;1.00;;;;;;5015218;28;20464;-85
2022/09/05 04:46:40;;;;;;;1.50;0.93;;;16.40;1.00;;;;;;4992473;28;20770;-85
2022/09/05 04:49:12;;;;;;;2.90;1.80;;;16.40;1.00;;;;;;4997890;28;20435;-85
2022/09/05 04:52:12;;;;;;;3.80;1.87;;;16.50;1.00;;;;;;5015116;28;20446;-85
2022/09/05 04:55:07;;;;;;;2.10;1.47;;;16.40;1.00;;;;;;5014960;28;20795;-85
2022/09/05 04:57:42;;;;;;;2.50;1.53;;;16.40;15.80;;;;;;5014619;28;20405;-85
2022/09/05 05:00:14;;;;;;;2.63;1.10;;;16.40;16.10;;;;;;5015220;28;20403;-85
2022/09/05 05:02:46;;;;;;;3.03;1.33;;;16.30;99.90;;;;;;5014815;28;20467;-86
2022/09/05 05:05:25;;;;;;;3.30;1.77;;;16.40;99.90;;;;;;5014601;28;20465;-86
2022/09/05 05:08:06;;;;;;;2.30;1.47;;;16.40;99.90;;;;;;5015091;28;20399;-85
2022/09/05 05:10:44;;;;;;;4.07;1.80;;;16.30;99.90;;;;;;5015078;28;20499;-87
2022/09/05 05:13:19;;;;;;;3.30;1.33;;;16.40;99.90;;;;;;4997212;28;20557;-84
2022/09/05 05:16:13;;;;;;;2.53;1.33;;;16.40;1.00;;;;;;5014893;28;20418;-85
2022/09/05 05:18:51;;;;;;;2.10;1.27;;;16.50;1.00;;;;;;5014094;28;20410;-85
2022/09/05 05:21:19;;;;;;;2.50;1.43;;;16.50;1.00;;;;;;4997050;28;20428;-88
2022/09/05 05:23:53;;;;;;;1.63;0.90;;;16.50;1.00;;;;;;5013623;28;20519;-85
2022/09/05 05:26:31;;;;;;;3.10;1.30;;;16.60;1.00;;;;;;4996679;28;20422;-86
2022/09/05 05:29:09;;;;;;;1.80;0.93;;;16.70;99.90;;;;;;4995404;28;20431;-86
2022/09/05 05:31:53;;;;;;;4.20;1.03;;;16.80;99.90;;;;;;5014560;28;20414;-87
2022/09/05 05:34:24;;;;;;;1.90;0.73;;;16.90;99.90;;;;;;4997109;28;20482;-86
2022/09/05 05:37:18;;;;;;;3.10;1.70;;;17.00;99.90;;;;;;4997028;28;20941;-87
2022/09/05 05:39:48;;;;;;;2.50;1.70;;;17.10;54.70;;;;;;5014531;28;20421;-86
2022/09/05 05:42:21;;;;;;;3.30;1.60;;;17.30;1.00;;;;;;5014073;28;20500;-87
2022/09/05 05:44:53;;;;;;;1.37;0.90;;;17.50;1.00;;;;;;4996816;28;20443;-86
2022/09/05 05:47:40;;;;;;;2.43;1.40;;;17.80;1.00;;;;;;5014532;28;20417;-86
2022/09/05 05:50:35;;;;;;;3.93;1.17;;;17.80;99.90;;;;;;5014351;28;20431;-86
2022/09/05 05:53:25;;;;;;;2.07;1.30;;;18.00;99.90;;;;;;5013993;28;20993;-86
2022/09/05 05:56:09;;;;;;;2.40;1.77;;;18.10;99.90;;;;;;5016925;28;20420;-87
2022/09/05 05:59:12;;;;;;;3.23;1.67;;;18.10;99.90;;;;;;5012684;28;20424;-87
2022/09/05 06:01:57;;;;;;;2.40;1.60;;;17.80;1.00;;;;;;5014084;28;20417;-86
2022/09/05 06:04:47;;;;;;;3.63;1.63;;;18.10;99.90;;;;;;5014069;28;20420;-85
2022/09/05 06:07:42;;;;;;;3.23;1.43;;;18.00;99.90;;;;;;5014023;28;20514;-87
2022/09/05 06:10:32;;;;;;;2.67;1.50;;;18.20;99.90;;;;;;5012899;28;20433;-89
2022/09/05 06:13:10;;;;;;;1.43;1.33;;;18.30;99.90;;;;;;5014056;28;20906;-86
2022/09/05 06:15:54;;;;;;;2.87;2.03;;;18.40;99.90;;;;;;5012791;28;20424;-89
2022/09/05 06:19:05;;;;;;;2.47;1.83;;;19.00;99.90;;;;;;5014016;28;20445;-86
2022/09/05 06:22:09;;;;;;;2.00;1.80;;;19.50;99.90;;;;;;4991327;28;20415;-89
2022/09/05 06:25:02;;;;;;;2.50;1.47;;;20.10;50.20;;;;;;5012575;28;20433;-89
2022/09/05 06:28:05;;;;;;;3.50;1.27;;;20.20;28.60;;;;;;5013530;28;20909;-88
2022/09/05 06:30:39;;;;;;;3.07;1.40;;;19.30;76.10;;;;;;5013901;28;20417;-87
2022/09/05 06:33:38;;;;;;;1.70;0.80;;;19.00;99.90;;;;;;5013773;28;20410;-87
2022/09/05 06:36:41;;;;;;;2.67;1.30;;;19.00;99.90;;;;;;4996710;28;20489;-90
2022/09/05 06:39:19;;;;;;;2.77;1.43;;;19.20;99.90;;;;;;4996784;28;20465;-89
2022/09/05 06:42:20;;;;;;;1.77;1.23;;;19.50;99.90;;;;;;4996205;28;20488;-90
2022/09/05 06:45:04;;;;;;;1.77;1.13;;;19.60;94.70;;;;;;5013812;28;20421;-89
2022/09/05 06:47:34;;;;;;;2.97;1.60;;;20.10;71.50;;;;;;5014214;28;20408;-92
2022/09/05 06:50:12;;;;;;;1.97;1.07;;;20.40;41.00;;;;;;5014069;28;20426;-92
2022/09/05 06:53:09;;;;;;;2.47;1.50;;;20.30;42.00;;;;;;5012795;28;20764;-88
2022/09/05 06:55:55;;;;;;;2.13;1.50;;;19.80;65.70;;;;;;4996350;28;20465;-86
2022/09/05 06:58:54;;;;;;;2.30;1.27;;;20.30;49.00;;;;;;5013449;28;20439;-90
2022/09/05 07:01:26;;;;;;;2.10;1.10;;;20.70;29.20;;;;;;5013867;28;20411;-93
2022/09/05 07:04:03;;;;;;;2.73;1.87;;;20.20;42.40;;;;;;4996032;28;20474;-91
2022/09/05 07:06:46;;;;;;;2.23;1.10;;;19.80;48.10;;;;;;5013812;28;20496;-88
2022/09/05 07:09:53;;;;;;;2.97;1.17;;;19.80;97.80;;;;;;5013879;28;20414;-85
2022/09/05 07:12:18;;;;;;;2.20;1.50;;;19.60;99.00;;;;;;5012425;28;20414;-88
2022/09/05 07:14:58;;;;;;;2.40;1.33;;;19.30;99.90;;;;;;5013800;28;20525;-92
2022/09/05 07:17:35;;;;;;;2.67;1.57;;;18.90;99.90;;;;;;5013922;28;20221;-87
2022/09/05 07:20:12;;;;;;;2.07;0.70;;;18.90;99.90;;;;;;4999100;28;20421;-85
2022/09/05 07:23:09;;;;;;;2.30;1.57;;;19.00;99.90;;;;;;5017397;28;20994;-91
2022/09/05 07:25:35;;;;;;;2.27;1.73;;;18.90;99.90;;;;;;4999673;28;20425;-86
2022/09/05 07:28:11;;;;;;;1.67;0.80;;;19.00;99.90;;;;;;4999471;28;20438;-89
2022/09/05 07:30:49;;;;;;;4.10;1.73;;;19.20;99.90;;;;;;5017169;28;20225;-90
2022/09/05 07:33:26;;;;;;;1.87;1.40;;;19.80;99.90;;;;;;5017695;28;20416;-90
2022/09/05 07:35:57;;;;;;;3.10;1.30;;;20.60;99.90;;;;;;4999491;28;20432;-89
2022/09/05 07:38:27;;;;;;;2.03;0.90;;;20.60;78.60;;;;;;5017266;28;20449;-90
2022/09/05 07:41:14;;;;;;;1.90;1.10;;;21.40;34.70;;;;;;4999468;28;20407;-87
2022/09/05 07:43:45;;;;;;;4.97;1.03;;;21.50;26.00;;;;;;5017268;28;20544;-90
2022/09/05 07:46:19;;;;;;;3.23;1.73;;;21.40;23.10;;;;;;4999497;28;20418;-88
2022/09/05 07:48:59;;;;;;;1.80;1.10;;;21.30;23.60;;;;;;4998989;28;20420;-90
2022/09/05 07:51:31;;;;;;;2.00;1.47;;;21.60;15.20;;;;;;5017175;28;20514;-90
2022/09/05 07:54:05;;;;;;;7.40;1.40;;;22.50;4.90;;;;;;4999002;28;20420;-87
2022/09/05 07:56:39;;;;;;;2.50;1.43;;;22.80;1.00;;;;;;4998835;28;20436;-87
2022/09/05 07:59:07;;;;;;;1.83;1.10;;;23.20;1.00;;;;;;5016631;28;20515;-84
2022/09/05 08:01:36;;;;;;;1.33;1.10;;;24.20;1.00;;;;;;5016531;28;20417;-83
2022/09/05 08:04:02;;;;;;;1.93;1.27;;;25.60;1.00;;;;;;5016583;28;20472;-87
2022/09/05 08:06:27;;;;;;;1.97;1.43;;;25.80;1.00;;;;;;5016686;28;20462;-89
2022/09/05 08:09:04;;;;;;;3.30;1.50;;;23.80;1.00;;;;;;5016781;28;20182;-90
2022/09/05 08:11:33;;;;;;;3.90;1.50;;;25.00;1.00;;;;;;5016182;28;20167;-88
2022/09/05 08:14:21;;;;;;;2.47;1.20;;;24.90;1.00;;;;;;5016650;28;20425;-94
2022/09/05 08:16:46;;;;;;;2.70;1.30;;;25.70;1.00;;;;;;4998933;28;20469;-90
2022/09/05 08:19:46;;;;;;;1.37;0.77;;;27.20;1.00;;;;;;4998794;28;20418;-86
2022/09/05 08:22:20;;;;;;;2.37;1.10;;;27.60;1.00;;;;;;5016054;28;20564;-88
2022/09/05 08:24:53;;;;;;;2.73;1.60;;;27.00;1.00;;;;;;4998911;28;20417;-91
2022/09/05 08:27:55;;;;;;;2.27;1.30;;;27.70;1.00;;;;;;4998377;28;20480;-87
2022/09/05 08:30:20;;;;;;;1.80;1.17;;;27.80;1.00;;;;;;4997134;28;20805;-86
2022/09/05 08:32:57;;;;;;;1.93;0.97;;;26.30;1.00;;;;;;5016140;28;20468;-85
2022/09/05 08:35:32;;;;;;;2.87;2.00;;;26.50;1.00;;;;;;5016061;28;20183;-88
2022/09/05 08:37:58;;;;;;;3.10;1.30;;;25.80;1.00;;;;;;5015999;28;20428;-90
2022/09/05 08:40:37;;;;;;;1.70;1.50;;;26.80;1.00;;;;;;4998538;28;20433;-91
2022/09/05 08:43:17;;;;;;;2.90;1.70;;;26.90;1.00;;;;;;5015657;28;20473;-89
2022/09/05 08:46:11;;;;;;;2.53;1.67;;;28.70;1.00;;;;;;5016484;28;20442;-89
2022/09/05 08:49:14;;;;;;;4.77;1.67;;;28.30;1.00;;;;;;5016257;28;20922;-90
2022/09/05 08:51:55;;;;;;;2.20;1.40;;;28.50;1.00;;;;;;5015767;28;20475;-88
2022/09/05 08:54:27;;;;;;;3.40;1.37;;;27.80;1.00;;;;;;4998350;28;20414;-87
2022/09/05 08:57:40;;;;;;;1.33;1.13;;;28.50;1.00;;;;;;5014404;28;20449;-89
2022/09/05 09:00:08;;;;;;;1.27;0.90;;;28.50;1.00;;;;;;4998091;28;20528;-88
2022/09/05 09:02:53;;;;;;;1.60;1.43;;;28.70;1.00;;;;;;5015584;28;20489;-88
2022/09/05 09:05:48;;;;;;;1.30;0.80;;;29.80;1.00;;;;;;4998082;28;20492;-87
2022/09/05 09:08:28;;;;;;;1.80;1.20;;;30.10;1.00;;;;;;5015421;28;20418;-87
2022/09/05 09:11:00;;;;;;;1.90;1.40;;;30.30;1.00;;;;;;5015153;28;20762;-86
2022/09/05 09:13:51;;;;;;;1.93;1.43;;;29.70;1.00;;;;;;4997836;28;20830;-88
2022/09/05 09:16:39;;;;;;;1.50;1.37;;;29.00;1.00;;;;;;5015733;28;20504;-88
2022/09/05 09:19:20;;;;;;;1.73;1.20;;;27.50;1.00;;;;;;4998714;28;20418;-89
2022/09/05 09:22:15;;;;;;;2.90;1.97;;;27.80;1.00;;;;;;4998297;28;20790;-88
2022/09/05 09:25:00;;;;;;;2.73;2.33;;;27.10;1.00;;;;;;5015439;28;20417;-87
2022/09/05 09:27:33;;;;;;;2.43;1.60;;;27.40;1.00;;;;;;4997408;28;20422;-88
2022/09/05 09:30:04;;;;;;;2.80;1.63;;;27.40;1.00;;;;;;5014307;28;20409;-88
2022/09/05 09:32:36;;;;;;;2.37;1.90;;;27.40;1.00;;;;;;5015381;28;20445;-86
2022/09/05 09:35:24;;;;;;;9.03;2.07;;;27.70;1.00;;;;;;5015224;28;20500;-88
2022/09/05 09:38:26;;;;;;;2.43;1.87;;;27.80;1.00;;;;;;5014954;28;20414;-88
2022/09/05 09:41:25;;;;;;;3.17;2.30;;;28.20;1.00;;;;;;5014447;28;20417;-88
2022/09/05 09:44:04;;;;;;;2.57;1.90;;;26.70;1.00;;;;;;5014844;28;20473;-88
2022/09/05 09:46:45;;;;;;;3.23;2.00;;;26.30;1.00;;;;;;5014955;28;20402;-89
2022/09/05 09:49:22;;;;;;;3.73;2.80;;;26.40;1.00;;;;;;5015150;28;20413;-87
2022/09/05 09:52:01;;;;;;;2.93;2.20;;;24.30;1.00;;;;;;5014764;28;20500;-89
2022/09/05 09:54:42;;;;;;;2.30;2.10;;;23.80;1.00;;;;;;4997740;28;20941;-86
2022/09/05 09:57:37;;;;;;;2.53;2.30;;;23.60;1.00;;;;;;5012750;28;20932;-84
2022/09/05 10:00:21;;;;;;;3.67;2.60;;;24.90;1.00;;;;;;5013405;28;20449;-87
2022/09/05 10:03:12;;;;;;;1.93;1.77;;;24.80;1.00;;;;;;5014626;28;20446;-87
2022/09/05 10:06:13;;;;;;;4.43;2.80;;;25.60;1.00;;;;;;4991845;28;20500;-86
2022/09/05 10:09:18;;;;;;;3.30;1.90;;;25.10;1.00;;;;;;5015660;28;20577;-89
2022/09/05 10:12:17;;;;;;;2.43;1.93;;;25.40;1.00;;;;;;4996152;28;20492;-89
2022/09/05 10:15:08;;;;;;;2.10;1.43;;;27.20;1.00;;;;;;5014305;28;20414;-90
2022/09/05 10:17:37;;;;;;;2.40;2.20;;;27.50;1.00;;;;;;5014224;28;20430;-89
2022/09/05 10:20:14;;;;;;;2.00;1.60;;;27.20;1.00;;;;;;5013946;28;20769;-89
2022/09/05 10:23:22;;;;;;;3.77;1.60;;;28.60;1.00;;;;;;5013959;28;21007;-89
2022/09/05 10:26:15;;;;;;;1.97;1.50;;;28.00;1.00;;;;;;5013877;28;20398;-86
2022/09/05 10:29:02;;;;;;;2.37;1.50;;;28.20;1.00;;;;;;5014154;28;20421;-89
2022/09/05 10:32:07;;;;;;;2.37;1.67;;;28.80;1.00;;;;;;5013736;28;20486;-83
2022/09/05 10:34:55;;;;;;;1.73;1.63;;;28.30;1.00;;;;;;4983702;28;20414;-88
2022/09/05 10:37:24;;;;;;;1.47;1.00;;;28.50;1.00;;;;;;5013555;28;20927;-85
2022/09/05 10:39:50;;;;;;;3.03;1.97;;;27.70;1.00;;;;;;5013644;28;20406;-84
2022/09/05 10:42:39;;;;;;;2.13;1.83;;;27.20;1.00;;;;;;4995563;28;20706;-84
2022/09/05 10:45:15;;;;;;;2.03;1.50;;;27.90;1.00;;;;;;5013528;28;20772;-87
2022/09/05 10:47:56;;;;;;;1.77;1.50;;;28.90;1.00;;;;;;4995897;28;20406;-87
2022/09/05 10:50:27;;;;;;;1.73;1.17;;;28.20;1.00;;;;;;5010831;28;20418;-87
2022/09/05 10:53:00;;;;;;;2.57;1.20;;;29.30;1.00;;;;;;5013801;28;20406;-88
2022/09/05 10:55:35;;;;;;;2.13;1.60;;;28.90;1.00;;;;;;5013408;28;20406;-87
2022/09/05 10:58:23;;;;;;;1.33;1.10;;;28.10;1.00;;;;;;4996170;28;20409;-88
2022/09/05 11:01:05;;;;;;;1.93;1.10;;;28.10;1.00;;;;;;5012532;28;20430;-89
2022/09/05 11:03:55;;;;;;;1.60;1.10;;;29.00;1.00;;;;;;4995768;28;20481;-87
2022/09/05 11:06:50;;;;;;;2.33;1.53;;;28.00;1.00;;;;;;5013274;28;20445;-86
2022/09/05 11:09:23;;;;;;;2.90;1.30;;;29.70;1.00;;;;;;4992023;28;20426;-85
2022/09/05 11:12:27;;;;;;;1.50;1.00;;;29.70;1.00;;;;;;4995935;28;20413;-89
2022/09/05 11:14:56;;;;;;;2.00;1.07;;;28.80;1.00;;;;;;4991974;28;20421;-87
2022/09/05 11:18:05;;;;;;;1.60;1.20;;;28.60;1.00;;;;;;5013617;28;20460;-86
2022/09/05 11:20:41;;;;;;;1.40;1.10;;;29.20;1.00;;;;;;4975051;28;20429;-86
2022/09/05 11:23:19;;;;;;;1.60;0.77;;;27.70;1.00;;;;;;5013404;28;20469;-85
2022/09/05 11:25:49;;;;;;;2.50;0.90;;;27.10;1.00;;;;;;5013497;28;20411;-87
2022/09/05 11:28:20;;;;;;;2.73;1.47;;;27.40;1.00;;;;;;5013635;28;20414;-88
2022/09/05 11:30:53;;;;;;;1.63;1.00;;;26.80;1.00;;;;;;5013515;28;20421;-89
2022/09/05 11:33:45;;;;;;;2.00;1.30;;;27.50;1.00;;;;;;5013450;28;20446;-89
2022/09/05 11:36:19;;;;;;;1.77;1.27;;;27.50;1.00;;;;;;5013877;28;20452;-88
2022/09/05 11:39:10;;;;;;;1.30;0.90;;;26.80;1.00;;;;;;4996576;28;20425;-89
2022/09/05 11:41:52;;;;;;;1.60;1.30;;;26.30;1.00;;;;;;5012148;28;20429;-89
2022/09/05 11:44:29;;;;;;;2.77;1.60;;;26.30;1.00;;;;;;4996003;28;20434;-88
2022/09/05 11:47:24;;;;;;;1.50;0.97;;;25.70;1.00;;;;;;5013803;28;21021;-87
2022/09/05 11:50:26;;;;;;;1.93;1.37;;;26.10;1.00;;;;;;4996042;28;20422;-88
2022/09/05 11:53:08;;;;;;;0.90;0.57;;;25.70;1.00;;;;;;5013495;28;20772;-88
2022/09/05 11:56:02;;;;;;;1.80;1.40;;;25.80;1.00;;;;;;5013070;28;20482;-87
2022/09/05 11:58:40;;;;;;;2.00;0.73;;;25.90;1.00;;;;;;5013450;28;20450;-87
2022/09/05 12:01:24;;;;;;;2.00;0.70;;;26.00;1.00;;;;;;5013702;28;20695;-87
2022/09/05 12:04:15;;;;;;;2.33;1.60;;;26.40;1.00;;;;;;5013723;28;20545;-89
2022/09/05 12:07:04;;;;;;;1.90;1.70;;;27.30;1.00;;;;;;5017485;28;20813;-88
2022/09/05 12:09:44;;;;;;;1.43;0.70;;;27.10;1.00;;;;;;4999663;28;20432;-88
2022/09/05 12:12:22;;;;;;;1.33;0.97;;;26.50;1.00;;;;;;4998851;28;20417;-88
2022/09/05 12:15:02;;;;;;;3.03;1.03;;;27.40;1.00;;;;;;5016461;28;20397;-88
2022/09/05 12:18:01;;;;;;;2.47;1.17;;;27.50;1.00;;;;;;5016485;28;21097;-88
2022/09/05 12:20:57;;;;;;;2.27;0.80;;;27.30;1.00;;;;;;5016971;28;20778;-88
2022/09/05 12:23:54;;;;;;;3.60;1.67;;;27.50;1.00;;;;;;5016657;28;20473;-88
2022/09/05 12:26:32;;;;;;;2.27;1.40;;;26.80;1.00;;;;;;5016145;28;20409;-89
2022/09/05 12:29:07;;;;;;;1.10;1.00;;;27.00;1.00;;;;;;5016452;28;20458;-89
2022/09/05 12:31:38;;;;;;;2.60;1.30;;;26.70;1.00;;;;;;5016118;28;20405;-88
2022/09/05 12:34:11;;;;;;;1.40;0.97;;;26.60;1.00;;;;;;5016019;28;20398;-88
2022/09/05 12:36:40;;;;;;;2.57;1.23;;;26.50;1.00;;;;;;5015965;28;20902;-88
2022/09/05 12:39:14;;;;;;;1.77;1.00;;;27.20;1.00;;;;;;5015718;28;20417;-88
2022/09/05 12:41:57;;;;;;;1.73;0.93;;;26.90;1.00;;;;;;5014280;28;20528;-90
2022/09/05 12:44:35;;;;;;;3.57;0.80;;;26.90;1.00;;;;;;4998213;28;20446;-90
2022/09/05 12:47:08;;;;;;;3.10;1.50;;;28.00;1.00;;;;;;5014875;28;20418;-87
2022/09/05 12:49:43;;;;;;;1.40;1.30;;;28.10;1.00;;;;;;4998524;28;20437;-86
2022/09/05 12:52:12;;;;;;;2.40;0.87;;;28.60;1.00;;;;;;5016128;28;20422;-86
2022/09/05 12:54:48;;;;;;;2.23;0.97;;;29.30;1.00;;;;;;5015898;28;20500;-87
2022/09/05 12:57:29;;;;;;;1.53;1.03;;;28.80;1.00;;;;;;5015791;28;20417;-87
2022/09/05 12:59:58;;;;;;;2.13;0.80;;;27.90;1.00;;;;;;5015364;28;20933;-87
2022/09/05 13:02:35;;;;;;;2.60;1.63;;;27.70;1.00;;;;;;5015250;28;20457;-84
2022/09/05 13:05:14;;;;;;;1.67;1.20;;;26.70;1.00;;;;;;5015072;28;20421;-87
2022/09/05 13:07:47;;;;;;;1.20;0.80;;;27.10;1.00;;;;;;5015326;28;20913;-87
2022/09/05 13:10:23;;;;;;;2.40;1.40;;;28.00;1.00;;;;;;5014982;28;20493;-85
2022/09/05 13:12:53;;;;;;;2.60;1.17;;;28.20;1.00;;;;;;4997657;28;20421;-86
2022/09/05 13:15:26;;;;;;;1.90;1.40;;;27.50;1.00;;;;;;4997510;28;20426;-88
2022/09/05 13:18:12;;;;;;;1.83;1.37;;;28.10;1.00;;;;;;4997074;28;20413;-87
2022/09/05 13:20:47;;;;;;;1.50;1.23;;;28.70;1.00;;;;;;5015044;28;20426;-87
2022/09/05 13:23:31;;;;;;;2.73;0.97;;;28.50;1.00;;;;;;5015169;28;20495;-90
2022/09/05 13:26:04;;;;;;;1.20;0.93;;;28.30;1.00;;;;;;5013552;28;20438;-89
2022/09/05 13:28:51;;;;;;;2.20;1.30;;;27.70;1.00;;;;;;5015331;28;20516;-88
2022/09/05 13:31:41;;;;;;;1.50;1.10;;;27.10;1.00;;;;;;5015136;28;21049;-84
2022/09/05 13:34:32;;;;;;;2.40;1.27;;;26.60;1.00;;;;;;5015493;28;20437;-88
2022/09/05 13:37:22;;;;;;;1.60;1.40;;;26.50;1.00;;;;;;4997865;28;20438;-86
2022/09/05 13:39:58;;;;;;;1.90;1.13;;;27.00;1.00;;;;;;5014624;28;20406;-86
2022/09/05 13:42:29;;;;;;;1.77;1.00;;;27.20;1.00;;;;;;4996853;28;20540;-84
2022/09/05 13:44:57;;;;;;;1.50;1.20;;;27.00;1.00;;;;;;4996712;28;20426;-88
2022/09/05 13:48:11;;;;;;;2.00;1.03;;;27.10;1.00;;;;;;4996768;28;20762;-88
2022/09/05 13:50:42;;;;;;;1.70;1.40;;;26.60;1.00;;;;;;4969124;28;20418;-89
2022/09/05 13:53:38;;;;;;;1.80;1.30;;;26.20;1.00;;;;;;5014319;28;20422;-88
2022/09/05 13:56:22;;;;;;;2.90;1.00;;;26.40;1.00;;;;;;5014200;28;20437;-87
2022/09/05 13:59:05;;;;;;;1.40;1.30;;;26.10;1.00;;;;;;5015009;28;20730;-87
2022/09/05 14:01:38;;;;;;;1.20;0.90;;;25.70;1.00;;;;;;5015360;28;20393;-88
2022/09/05 14:04:20;;;;;;;3.37;3.10;;;26.10;1.00;;;;;;5015157;28;20482;-89
2022/09/05 14:06:50;;;;;;;1.57;1.47;;;26.50;1.00;;;;;;5015049;28;20465;-89
2022/09/05 14:09:48;;;;;;;2.47;0.97;;;26.90;1.00;;;;;;5015140;28;20421;-88
2022/09/05 14:12:31;;;;;;;1.67;1.17;;;27.10;1.00;;;;;;5014529;28;20414;-87
2022/09/05 14:15:11;;;;;;;2.57;1.67;;;27.10;1.00;;;;;;5014642;28;20411;-88
2022/09/05 14:18:05;;;;;;;3.03;1.30;;;26.80;1.00;;;;;;5014018;28;20521;-88